createdAt,value
2022-09-17T00:01:16.493Z,16.00
2022-09-17T00:03:45.417Z,15.90
2022-09-17T00:06:13.900Z,16.00
2022-09-17T00:08:43.809Z,15.80
2022-09-17T00:11:14.932Z,15.80
2022-09-17T00:13:43.091Z,16.10
2022-09-17T00:16:11.821Z,16.00
2022-09-17T00:18:41.847Z,15.90
2022-09-17T00:21:17.353Z,15.80
2022-09-17T00:23:47.066Z,15.90
2022-09-17T00:26:15.307Z,15.90
2022-09-17T00:28:45.381Z,15.90
2022-09-17T00:31:13.298Z,15.80
2022-09-17T00:33:41.085Z,15.80
2022-09-17T00:36:09.313Z,15.90
2022-09-17T00:38:37.257Z,15.90
2022-09-17T00:41:07.051Z,15.90
2022-09-17T00:43:40.637Z,15.90
2022-09-17T00:46:20.849Z,15.90
2022-09-17T00:48:49.121Z,15.80
2022-09-17T00:51:21.593Z,15.90
2022-09-17T00:53:49.739Z,15.80
2022-09-17T00:56:24.037Z,15.80
2022-09-17T00:58:53.035Z,15.70
2022-09-17T01:01:20.904Z,15.70
2022-09-17T01:03:49.215Z,15.60
2022-09-17T01:06:26.317Z,15.60
2022-09-17T01:09:08.562Z,15.60
2022-09-17T01:11:53.644Z,15.50
2022-09-17T01:14:37.783Z,15.60
2022-09-17T01:17:16.034Z,15.70
2022-09-17T01:20:16.795Z,15.70
2022-09-17T01:22:54.849Z,15.70
2022-09-17T01:25:24.944Z,15.70
2022-09-17T01:28:18.684Z,15.70
2022-09-17T01:31:31.381Z,15.60
2022-09-17T01:34:06.023Z,15.70
2022-09-17T01:36:42.984Z,15.60
2022-09-17T01:39:18.539Z,15.70
2022-09-17T01:41:54.041Z,15.60
2022-09-17T01:44:27.466Z,15.60
2022-09-17T01:47:02.456Z,15.70
2022-09-17T01:49:33.648Z,15.60
2022-09-17T01:52:02.756Z,15.70
2022-09-17T01:54:37.144Z,15.70
2022-09-17T01:57:13.963Z,15.70
2022-09-17T01:59:46.760Z,15.70
2022-09-17T02:02:27.480Z,15.90
2022-09-17T02:04:59.504Z,15.90
2022-09-17T02:07:27.796Z,16.00
2022-09-17T02:10:01.036Z,16.00
2022-09-17T02:12:33.092Z,16.00
2022-09-17T02:15:03.926Z,16.10
2022-09-17T02:17:38.197Z,16.10
2022-09-17T02:20:07.648Z,16.10
2022-09-17T02:22:40.858Z,16.00
2022-09-17T02:25:16.601Z,16.00
2022-09-17T02:27:51.959Z,16.10
2022-09-17T02:30:19.788Z,16.20
2022-09-17T02:32:49.771Z,16.20
2022-09-17T02:35:18.164Z,16.20
2022-09-17T02:37:46.440Z,16.10
2022-09-17T02:40:16.225Z,16.10
2022-09-17T02:42:58.356Z,16.20
2022-09-17T02:45:35.984Z,16.10
2022-09-17T02:48:17.704Z,16.10
2022-09-17T02:51:06.886Z,16.10
2022-09-17T02:53:40.647Z,16.10
2022-09-17T02:56:15.280Z,16.10
2022-09-17T02:58:50.751Z,16.10
2022-09-17T03:01:24.032Z,16.30
2022-09-17T03:03:55.685Z,16.10
2022-09-17T03:06:23.992Z,16.10
2022-09-17T03:08:52.875Z,16.20
2022-09-17T03:11:21.559Z,16.20
2022-09-17T03:13:49.531Z,16.10
2022-09-17T03:16:17.433Z,16.10
2022-09-17T03:18:45.291Z,16.30
2022-09-17T03:21:14.384Z,16.30
2022-09-17T03:23:42.502Z,16.20
2022-09-17T03:26:10.273Z,16.30
2022-09-17T03:28:38.035Z,16.20
2022-09-17T03:31:06.342Z,16.20
2022-09-17T03:33:34.732Z,16.10
2022-09-17T03:36:03.124Z,16.10
2022-09-17T03:38:34.075Z,16.20
2022-09-17T03:41:03.017Z,16.20
2022-09-17T03:43:31.106Z,16.30
2022-09-17T03:45:59.012Z,16.30
2022-09-17T03:48:26.799Z,16.30
2022-09-17T03:50:54.562Z,16.20
2022-09-17T03:53:22.367Z,16.20
2022-09-17T03:55:51.614Z,16.30
2022-09-17T03:58:19.380Z,16.10
2022-09-17T04:00:53.033Z,16.30
2022-09-17T04:03:21.344Z,16.20
2022-09-17T04:05:49.452Z,16.20
2022-09-17T04:08:17.469Z,16.20
2022-09-17T04:10:46.099Z,16.30
2022-09-17T04:13:16.689Z,16.30
2022-09-17T04:15:45.344Z,16.30
2022-09-17T04:18:13.872Z,16.40
2022-09-17T04:20:41.639Z,16.30
2022-09-17T04:23:11.036Z,16.30
2022-09-17T04:25:38.845Z,16.30
2022-09-17T04:28:06.693Z,16.30
2022-09-17T04:30:35.801Z,16.30
2022-09-17T04:33:03.588Z,16.40
2022-09-17T04:35:31.587Z,16.40
2022-09-17T04:37:59.487Z,16.40
2022-09-17T04:40:28.229Z,16.30
2022-09-17T04:42:56.797Z,16.30
2022-09-17T04:45:24.901Z,16.30
2022-09-17T04:47:54.041Z,16.30
2022-09-17T04:50:23.084Z,16.30
2022-09-17T04:52:50.956Z,16.30
2022-09-17T04:55:18.870Z,16.50
2022-09-17T04:57:50.401Z,16.40
2022-09-17T05:00:19.539Z,16.30
2022-09-17T05:02:50.106Z,16.30
2022-09-17T05:05:20.260Z,16.30
2022-09-17T05:07:48.288Z,16.30
2022-09-17T05:10:18.279Z,16.20
2022-09-17T05:12:49.627Z,16.30
2022-09-17T05:15:18.080Z,16.30
2022-09-17T05:17:45.894Z,16.20
2022-09-17T05:20:14.482Z,16.20
2022-09-17T05:22:45.487Z,16.10
2022-09-17T05:25:14.147Z,16.10
2022-09-17T05:27:42.155Z,16.00
2022-09-17T05:30:11.922Z,16.20
2022-09-17T05:32:40.652Z,16.00
2022-09-17T05:35:09.805Z,16.00
2022-09-17T05:37:38.391Z,16.00
2022-09-17T05:40:09.565Z,16.00
2022-09-17T05:42:37.397Z,16.00
2022-09-17T05:45:06.382Z,16.00
2022-09-17T05:47:35.248Z,16.00
2022-09-17T05:50:03.036Z,16.00
2022-09-17T05:52:30.934Z,16.00
2022-09-17T05:54:58.745Z,16.00
2022-09-17T05:57:30.339Z,15.90
2022-09-17T05:59:58.075Z,15.80
2022-09-17T06:02:25.925Z,15.50
2022-09-17T06:04:53.739Z,15.70
2022-09-17T06:07:21.544Z,15.80
2022-09-17T06:09:49.307Z,15.70
2022-09-17T06:12:17.131Z,15.70
2022-09-17T06:14:46.196Z,15.70
2022-09-17T06:17:13.908Z,15.70
2022-09-17T06:19:41.729Z,15.80
2022-09-17T06:22:09.825Z,15.80
2022-09-17T06:24:37.657Z,15.80
2022-09-17T06:27:05.660Z,15.80
2022-09-17T06:29:33.402Z,15.70
2022-09-17T06:32:02.793Z,15.70
2022-09-17T06:34:30.553Z,15.70
2022-09-17T06:36:58.294Z,15.70
2022-09-17T06:39:26.115Z,15.90
2022-09-17T06:41:53.872Z,15.90
2022-09-17T06:44:21.627Z,15.90
2022-09-17T06:46:51.095Z,15.90
2022-09-17T06:49:20.440Z,16.00
2022-09-17T06:51:48.180Z,16.10
2022-09-17T06:54:15.959Z,16.20
2022-09-17T06:56:43.870Z,16.30
2022-09-17T06:59:11.616Z,16.40
2022-09-17T07:01:39.424Z,16.40
2022-09-17T07:04:07.447Z,16.40
2022-09-17T07:06:36.549Z,16.40
2022-09-17T07:09:09.101Z,16.50
2022-09-17T07:11:38.592Z,16.40
2022-09-17T07:14:06.856Z,16.60
2022-09-17T07:16:36.762Z,16.50
2022-09-17T07:19:05.460Z,16.50
2022-09-17T07:21:33.223Z,16.40
2022-09-17T07:24:03.484Z,16.50
2022-09-17T07:26:31.273Z,16.50
2022-09-17T07:28:59.520Z,16.50
2022-09-17T07:31:27.399Z,16.60
2022-09-17T07:33:55.152Z,16.70
2022-09-17T07:36:23.135Z,16.70
2022-09-17T07:38:50.859Z,16.70
2022-09-17T07:41:19.988Z,16.80
2022-09-17T07:43:47.789Z,16.60
2022-09-17T07:46:17.583Z,16.50
2022-09-17T07:48:46.308Z,16.60
2022-09-17T07:51:17.268Z,16.70
2022-09-17T07:53:45.611Z,16.60
2022-09-17T07:56:13.477Z,16.60
2022-09-17T07:58:42.887Z,16.50
2022-09-17T08:01:12.127Z,16.50
2022-09-17T08:03:40.908Z,16.50
2022-09-17T08:06:10.847Z,16.60
2022-09-17T08:08:40.117Z,16.60
2022-09-17T08:11:09.950Z,16.60
2022-09-17T08:13:38.053Z,16.60
2022-09-17T08:16:09.617Z,16.90
2022-09-17T08:18:37.508Z,16.60
2022-09-17T08:21:06.987Z,16.60
2022-09-17T08:23:36.771Z,16.60
2022-09-17T08:26:06.011Z,16.60
2022-09-17T08:28:34.093Z,16.50
2022-09-17T08:31:03.400Z,16.50
2022-09-17T08:33:33.928Z,16.30
2022-09-17T08:36:02.365Z,16.40
2022-09-17T08:38:37.216Z,16.50
2022-09-17T08:41:20.544Z,16.50
2022-09-17T08:43:55.971Z,16.40
2022-09-17T08:46:25.489Z,16.60
2022-09-17T08:49:03.111Z,16.60
2022-09-17T08:51:41.720Z,16.60
2022-09-17T08:54:16.285Z,16.60
2022-09-17T08:56:46.637Z,16.70
2022-09-17T08:59:26.309Z,16.70
2022-09-17T09:02:01.115Z,16.80
2022-09-17T09:04:47.227Z,16.70
2022-09-17T09:07:21.115Z,16.70
2022-09-17T09:09:53.970Z,16.80
2022-09-17T09:12:26.994Z,17.10
2022-09-17T09:15:00.473Z,17.00
2022-09-17T09:17:33.405Z,17.00
2022-09-17T09:22:50.615Z,17.00
2022-09-17T09:25:24.816Z,17.10
2022-09-17T09:28:03.983Z,17.00
2022-09-17T09:30:44.408Z,17.00
2022-09-17T09:33:15.669Z,17.00
2022-09-17T09:35:44.864Z,17.00
2022-09-17T09:38:21.727Z,17.10
2022-09-17T09:40:54.508Z,17.10
2022-09-17T09:43:32.759Z,17.20
2022-09-17T09:46:44.306Z,17.30
2022-09-17T09:49:23.335Z,17.30
2022-09-17T09:52:04.194Z,17.50
2022-09-17T09:54:44.793Z,17.60
2022-09-17T09:57:14.961Z,17.60
2022-09-17T09:59:42.781Z,17.50
2022-09-17T10:02:11.263Z,17.40
2022-09-17T10:04:39.218Z,17.30
2022-09-17T10:07:08.409Z,17.30
2022-09-17T10:09:39.165Z,17.60
2022-09-17T10:12:18.889Z,17.80
2022-09-17T10:14:47.699Z,17.90
2022-09-17T10:17:23.387Z,17.90
2022-09-17T10:20:19.311Z,17.80
2022-09-17T10:22:50.058Z,17.80
2022-09-17T10:25:30.424Z,17.80
2022-09-17T10:28:00.011Z,17.90
2022-09-17T10:30:28.320Z,18.10
2022-09-17T10:33:17.367Z,18.40
2022-09-17T10:35:57.052Z,18.50
2022-09-17T10:38:32.917Z,18.70
2022-09-17T10:41:21.639Z,18.70
2022-09-17T10:43:50.499Z,18.60
2022-09-17T10:46:26.787Z,18.40
2022-09-17T10:49:11.126Z,18.40
2022-09-17T10:51:40.083Z,18.50
2022-09-17T10:54:34.009Z,18.30
2022-09-17T10:57:04.864Z,18.20
2022-09-17T10:59:57.948Z,17.90
2022-09-17T11:02:48.643Z,17.80
2022-09-17T11:05:34.923Z,17.90
2022-09-17T11:08:09.223Z,18.10
2022-09-17T11:10:45.298Z,18.20
2022-09-17T11:13:24.548Z,18.30
2022-09-17T11:16:08.042Z,18.30
2022-09-17T11:18:41.952Z,18.30
2022-09-17T11:21:23.361Z,18.40
2022-09-17T11:24:19.003Z,18.50
2022-09-17T11:26:54.857Z,18.50
2022-09-17T11:29:56.163Z,18.30
2022-09-17T11:32:40.360Z,18.40
2022-09-17T11:35:12.362Z,18.30
2022-09-17T11:37:48.932Z,18.20
2022-09-17T11:40:23.027Z,18.20
2022-09-17T11:42:54.875Z,18.20
2022-09-17T11:45:28.399Z,18.20
2022-09-17T11:48:04.485Z,18.20
2022-09-17T11:50:37.015Z,18.20
2022-09-17T11:53:13.099Z,18.20
2022-09-17T11:55:47.350Z,18.30
2022-09-17T11:58:21.385Z,18.20
2022-09-17T12:00:55.981Z,18.30
2022-09-17T12:03:32.286Z,18.40
2022-09-17T12:06:04.572Z,18.50
2022-09-17T12:08:41.910Z,18.70
2022-09-17T12:11:15.104Z,18.60
2022-09-17T12:13:46.757Z,18.70
2022-09-17T12:16:21.879Z,18.70
2022-09-17T12:18:58.272Z,18.90
2022-09-17T12:21:30.854Z,19.00
2022-09-17T12:24:04.417Z,19.10
2022-09-17T12:26:45.972Z,19.10
2022-09-17T12:29:31.113Z,19.10
2022-09-17T12:32:04.876Z,19.10
2022-09-17T12:34:45.499Z,19.30
2022-09-17T12:37:18.865Z,19.30
2022-09-17T12:40:11.035Z,19.60
2022-09-17T12:42:54.590Z,19.60
2022-09-17T12:45:40.200Z,19.60
2022-09-17T12:48:43.961Z,19.70
2022-09-17T12:51:26.747Z,19.70
2022-09-17T12:54:04.382Z,19.80
2022-09-17T12:56:47.024Z,19.90
2022-09-17T12:59:34.312Z,20.00
2022-09-17T13:02:05.565Z,20.10
2022-09-17T13:05:01.700Z,20.20
2022-09-17T13:08:03.383Z,20.30
2022-09-17T13:10:47.813Z,20.30
2022-09-17T13:13:30.869Z,20.20
2022-09-17T13:16:06.092Z,19.90
2022-09-17T13:18:59.457Z,19.60
2022-09-17T13:21:40.413Z,19.50
2022-09-17T13:24:16.934Z,19.40
2022-09-17T13:26:46.009Z,19.50
2022-09-17T13:29:14.572Z,19.30
2022-09-17T13:31:48.917Z,19.30
2022-09-17T13:34:31.189Z,19.30
2022-09-17T13:37:01.355Z,19.40
2022-09-17T13:39:41.647Z,19.30
2022-09-17T13:42:15.031Z,19.30
2022-09-17T13:44:46.739Z,19.30
2022-09-17T13:47:19.492Z,19.30
2022-09-17T13:49:51.957Z,19.30
2022-09-17T13:52:44.444Z,19.40
2022-09-17T13:55:35.165Z,19.40
2022-09-17T13:58:07.239Z,19.50
2022-09-17T14:00:54.114Z,19.40
2022-09-17T14:03:49.995Z,19.40
2022-09-17T14:06:51.431Z,19.20
2022-09-17T14:09:51.231Z,19.10
2022-09-17T14:13:10.902Z,18.90
2022-09-17T14:15:58.018Z,19.00
2022-09-17T14:18:40.083Z,19.00
2022-09-17T14:21:19.353Z,19.00
2022-09-17T14:23:51.589Z,19.00
2022-09-17T14:26:43.816Z,19.10
2022-09-17T14:29:25.561Z,19.10
2022-09-17T14:31:53.636Z,19.10
2022-09-17T14:34:24.268Z,19.00
2022-09-17T14:36:53.498Z,19.10
2022-09-17T14:39:24.130Z,19.10
2022-09-17T14:41:55.397Z,19.00
2022-09-17T14:44:26.527Z,19.00
2022-09-17T14:46:59.614Z,19.00
2022-09-17T14:49:29.589Z,18.90
2022-09-17T14:51:58.443Z,18.90
2022-09-17T14:54:27.207Z,18.70
2022-09-17T14:56:59.243Z,18.80
2022-09-17T14:59:42.182Z,18.90
2022-09-17T15:02:32.868Z,18.90
2022-09-17T15:05:01.984Z,18.90
2022-09-17T15:07:30.930Z,18.90
2022-09-17T15:10:10.109Z,18.90
2022-09-17T15:12:39.594Z,18.80
2022-09-17T15:15:12.540Z,18.70
2022-09-17T15:17:43.565Z,18.60
2022-09-17T15:20:17.815Z,18.60
2022-09-17T15:22:51.000Z,18.40
2022-09-17T15:25:23.955Z,18.20
2022-09-17T15:27:56.119Z,18.40
2022-09-17T15:30:25.439Z,18.50
2022-09-17T15:32:55.372Z,18.40
2022-09-17T15:35:28.190Z,18.40
2022-09-17T15:38:21.831Z,18.50
2022-09-17T15:40:45.536Z,18.50
2022-09-17T15:43:19.963Z,18.40
2022-09-17T15:45:47.849Z,18.40
2022-09-17T15:48:34.782Z,18.30
2022-09-17T15:51:04.879Z,18.30
2022-09-17T15:53:33.559Z,18.00
2022-09-17T15:56:05.170Z,17.70
2022-09-17T15:58:38.701Z,17.70
2022-09-17T16:01:47.374Z,17.60
2022-09-17T16:04:23.691Z,17.50
2022-09-17T16:06:58.839Z,17.40
2022-09-17T16:09:44.023Z,17.40
2022-09-17T16:12:14.419Z,17.30
2022-09-17T16:14:51.683Z,17.20
2022-09-17T16:17:44.713Z,17.10
2022-09-17T16:20:19.783Z,17.20
2022-09-17T16:22:48.870Z,17.30
2022-09-17T16:25:17.555Z,17.10
2022-09-17T16:27:49.899Z,17.10
2022-09-17T16:30:21.298Z,16.90
2022-09-17T16:32:49.367Z,16.70
2022-09-17T16:35:18.866Z,16.60
2022-09-17T16:37:50.039Z,16.70
2022-09-17T16:40:18.594Z,16.70
2022-09-17T16:42:46.854Z,16.80
2022-09-17T16:45:16.819Z,16.90
2022-09-17T16:47:45.941Z,17.10
2022-09-17T16:50:15.795Z,16.90
2022-09-17T16:52:44.651Z,16.80
2022-09-17T16:55:14.454Z,16.90
2022-09-17T16:57:42.281Z,16.80
2022-09-17T17:00:14.024Z,17.00
2022-09-17T17:02:41.865Z,17.00
2022-09-17T17:05:11.659Z,17.00
2022-09-17T17:07:39.404Z,16.80
2022-09-17T17:10:08.985Z,16.60
2022-09-17T17:12:37.282Z,16.60
2022-09-17T17:15:06.936Z,16.50
2022-09-17T17:17:35.832Z,16.40
2022-09-17T17:20:04.765Z,16.40
2022-09-17T17:22:34.083Z,16.40
2022-09-17T17:25:01.861Z,16.50
2022-09-17T17:27:30.082Z,16.60
2022-09-17T17:29:57.842Z,16.60
2022-09-17T17:32:25.647Z,16.50
2022-09-17T17:34:53.399Z,16.60
2022-09-17T17:37:23.139Z,16.60
2022-09-17T17:39:52.329Z,16.80
2022-09-17T17:42:20.145Z,16.80
2022-09-17T17:44:48.320Z,16.80
2022-09-17T17:47:16.288Z,16.80
2022-09-17T17:49:45.019Z,16.70
2022-09-17T17:52:12.780Z,16.70
2022-09-17T17:54:40.529Z,16.70
2022-09-17T17:57:10.400Z,16.70
2022-09-17T17:59:38.121Z,16.70
2022-09-17T18:02:06.007Z,16.70
2022-09-17T18:04:33.895Z,16.70
2022-09-17T18:07:01.666Z,16.60
2022-09-17T18:09:30.092Z,16.60
2022-09-17T18:11:57.911Z,16.80
2022-09-17T18:14:27.408Z,16.80
2022-09-17T18:16:55.345Z,16.70
2022-09-17T18:19:23.131Z,16.80
2022-09-17T18:21:51.460Z,16.80
2022-09-17T18:24:19.227Z,16.90
2022-09-17T18:26:47.583Z,16.90
2022-09-17T18:29:15.413Z,16.90
2022-09-17T18:31:45.153Z,16.90
2022-09-17T18:34:15.040Z,16.90
2022-09-17T18:36:48.753Z,16.90
2022-09-17T18:42:08.339Z,16.80
2022-09-17T18:44:36.129Z,16.80
2022-09-17T18:47:05.364Z,16.70
2022-09-17T18:49:33.107Z,16.70
2022-09-17T18:52:00.863Z,16.80
2022-09-17T18:54:28.665Z,16.90
2022-09-17T18:56:56.590Z,16.80
2022-09-17T18:59:24.379Z,16.90
2022-09-17T19:01:52.226Z,16.80
2022-09-17T19:04:21.367Z,16.80
2022-09-17T19:06:49.168Z,16.70
2022-09-17T19:09:17.061Z,16.70
2022-09-17T19:11:44.803Z,16.80
2022-09-17T19:14:12.563Z,16.80
2022-09-17T19:16:40.447Z,16.90
2022-09-17T19:19:08.265Z,16.90
2022-09-17T19:21:37.315Z,16.80
2022-09-17T19:24:05.493Z,16.80
2022-09-17T19:26:33.343Z,16.80
2022-09-17T19:29:01.250Z,16.70
2022-09-17T19:31:29.993Z,16.70
2022-09-17T19:33:59.520Z,16.90
2022-09-17T19:36:27.331Z,17.00
2022-09-17T19:38:58.508Z,17.00
2022-09-17T19:41:27.454Z,17.10
2022-09-17T19:43:56.823Z,17.00
2022-09-17T19:46:27.889Z,17.20
2022-09-17T19:48:58.400Z,17.20
2022-09-17T19:51:28.334Z,17.30
2022-09-17T19:53:57.987Z,17.40
2022-09-17T19:56:27.497Z,17.50
2022-09-17T19:58:55.287Z,17.40
2022-09-17T20:01:23.390Z,17.40
2022-09-17T20:03:53.063Z,17.40
2022-09-17T20:06:23.276Z,17.30
2022-09-17T20:08:52.361Z,17.30
2022-09-17T20:11:23.151Z,17.30
2022-09-17T20:13:51.453Z,17.30
2022-09-17T20:16:21.126Z,17.30
2022-09-17T20:18:49.867Z,17.30
2022-09-17T20:21:20.043Z,17.30
2022-09-17T20:23:47.940Z,17.30
2022-09-17T20:26:16.504Z,17.30
2022-09-17T20:28:45.921Z,17.30
2022-09-17T20:31:16.187Z,17.30
2022-09-17T20:33:44.438Z,17.30
2022-09-17T20:36:13.929Z,17.30
2022-09-17T20:39:10.587Z,17.30
2022-09-17T20:41:31.453Z,17.20
2022-09-17T20:44:00.703Z,17.30
2022-09-17T20:46:29.699Z,17.20
2022-09-17T20:48:58.613Z,17.40
2022-09-17T20:51:28.591Z,17.40
2022-09-17T20:53:57.828Z,17.50
2022-09-17T20:56:28.210Z,17.40
2022-09-17T20:59:03.333Z,17.50
2022-09-17T21:01:34.374Z,17.50
2022-09-17T21:04:03.328Z,17.40
2022-09-17T21:06:32.811Z,17.40
2022-09-17T21:09:01.219Z,17.40
2022-09-17T21:11:30.977Z,17.40
2022-09-17T21:14:00.071Z,17.50
2022-09-17T21:16:28.235Z,17.40
2022-09-17T21:18:58.500Z,17.40
2022-09-17T21:21:26.840Z,17.30
2022-09-17T21:23:55.116Z,17.30
2022-09-17T21:26:24.943Z,17.30
2022-09-17T21:28:55.229Z,17.30
2022-09-17T21:31:27.350Z,17.30
2022-09-17T21:34:02.101Z,17.40
2022-09-17T21:36:31.533Z,17.30
2022-09-17T21:39:01.208Z,17.30
2022-09-17T21:41:29.354Z,17.20
2022-09-17T21:43:57.128Z,17.20
2022-09-17T21:46:26.772Z,17.00
2022-09-17T21:48:56.332Z,16.90
2022-09-17T21:51:30.202Z,16.90
2022-09-17T21:54:00.859Z,16.90
2022-09-17T21:56:30.140Z,17.00
2022-09-17T21:58:59.802Z,17.00
2022-09-17T22:01:31.878Z,16.90
2022-09-17T22:04:01.950Z,17.10
2022-09-17T22:06:32.540Z,17.10
2022-09-17T22:09:02.153Z,17.10
2022-09-17T22:11:31.809Z,17.00
2022-09-17T22:14:04.694Z,17.10
2022-09-17T22:16:35.796Z,16.80
2022-09-17T22:19:04.843Z,16.70
2022-09-17T22:21:36.178Z,16.70
2022-09-17T22:24:06.436Z,16.70
2022-09-17T22:26:37.329Z,16.80
2022-09-17T22:29:07.580Z,16.90
2022-09-17T22:31:35.982Z,17.00
2022-09-17T22:34:07.713Z,17.10
2022-09-17T22:36:36.844Z,17.00
2022-09-17T22:39:05.506Z,16.90
2022-09-17T22:41:34.981Z,17.00
2022-09-17T22:44:05.032Z,17.00
2022-09-17T22:46:34.761Z,16.90
2022-09-17T22:49:02.832Z,16.90
2022-09-17T22:51:31.428Z,17.00
2022-09-17T22:54:01.464Z,17.00
2022-09-17T22:56:30.056Z,16.90
2022-09-17T22:58:58.547Z,16.80
2022-09-17T23:01:29.728Z,16.70
2022-09-17T23:03:58.746Z,16.80
2022-09-17T23:06:28.455Z,16.90
2022-09-17T23:08:56.393Z,16.80
2022-09-17T23:11:27.600Z,16.80
2022-09-17T23:13:58.314Z,16.90
2022-09-17T23:16:26.386Z,16.90
2022-09-17T23:18:54.227Z,17.00
2022-09-17T23:21:22.750Z,17.00
2022-09-17T23:23:52.057Z,16.90
2022-09-17T23:26:21.075Z,16.90
2022-09-17T23:28:50.865Z,16.90
2022-09-17T23:31:21.172Z,17.00
2022-09-17T23:33:49.460Z,16.90
2022-09-17T23:36:20.072Z,16.90
2022-09-17T23:38:49.084Z,16.80
2022-09-17T23:41:18.793Z,16.80
2022-09-17T23:43:48.184Z,16.90
2022-09-17T23:46:17.907Z,16.80
2022-09-17T23:48:46.403Z,16.80
2022-09-17T23:51:14.233Z,16.70
2022-09-17T23:53:42.018Z,16.70
2022-09-17T23:56:12.854Z,16.70
2022-09-17T23:58:41.068Z,16.50
